< Typhoon 201618 2016 Season Typhoon 201620 >
Typhoon 201619 (AERE)
General InformationDetailed Track InformationTrack Information on Google MapsForecast History on Google MapsAccess Analytics MapList of All Images || NewsDisaster Info.WeblogTrackbackTyphoon FrontTwiphoonTyphoon Now!Typhoon ImaginationDisaster Info. XMLResourceGoogle EarthGE AnimationAtom FeedGeoJSON
Detalied Best Track Wind (Time Zone = UTC)
Year Month Day Hour Lat. Long. Wind (kt) Gust (kt) Direc. of Major Storm Axis Radius of Major Storm Axis (nm) Radius of Minor Storm Axis (nm) Direc. of Major Gale Axis Radius of Major Gale Axis (nm) Radius of Minor Gale Axis (nm) Image
2016 10 4 12 19.2 130.0 0 0 - - - - - - Image
2016 10 4 18 19.2 127.8 0 0 - - - - - - Image
2016 10 5 00 19.0 126.5 0 0 - - - - - - Image
2016 10 5 06 18.9 125.5 0 0 - - - - - - Image
2016 10 5 12 19.5 123.8 0 0 - - - - - - Image
2016 10 5 18 20.1 122.1 35 0 - - - symmetric 60 60 Image
2016 10 6 00 20.6 120.5 35 0 - - - symmetric 60 60 Image
2016 10 6 06 20.7 119.0 35 0 - - - symmetric 60 60 Image
2016 10 6 12 20.6 117.8 40 0 - - - symmetric 60 60 Image
2016 10 6 18 20.6 117.2 40 0 - - - symmetric 60 60 Image
2016 10 7 00 20.4 116.4 40 0 - - - symmetric 60 60 Image
2016 10 7 06 20.7 116.0 50 0 - - - NW 90 60 Image
2016 10 7 12 21.0 115.9 55 0 symmetric 30 30 NW 90 60 Image
2016 10 7 18 21.2 115.9 60 0 symmetric 30 30 NW 90 60 Image
2016 10 8 00 21.3 116.1 55 0 symmetric 30 30 NW 90 60 Image
2016 10 8 06 21.3 116.3 50 0 - - - NW 90 60 Image
2016 10 8 12 21.6 116.9 45 0 - - - NW 90 60 Image
2016 10 8 18 21.8 117.2 40 0 - - - N 90 40 Image
2016 10 9 00 21.6 117.4 40 0 - - - NE 90 40 Image
2016 10 9 06 21.3 117.8 40 0 - - - NE 120 90 Image
2016 10 9 12 21.6 117.9 35 0 - - - symmetric 90 90 Image
2016 10 9 18 21.8 117.9 35 0 - - - symmetric 60 60 Image
2016 10 10 00 22.1 118.0 0 0 - - - - - - Image
Japan Meteorological Agency Best Track Data | Correction Date : 2016-11-22
< Typhoon 201618 2016 Season Typhoon 201620 >

Help